Time,TemperatureF,DewpointF,PressureIn,WindDirection,WindDirectionDegrees,WindSpeedMPH,WindSpeedGustMPH,Humidity,HourlyPrecipIn,Conditions,Clouds,dailyrainin,SoftwareType,DateUTC
2013-08-11 00:00:00,60.5,37.0,30.11,WNW,286,0.0,0.0,42,0.00,,---,0.00,VWS V14.00,2013-08-11 07:00:00,
2013-08-11 00:10:00,60.8,36.7,30.12,WNW,286,0.0,0.0,40,0.00,,---,0.00,VWS V14.00,2013-08-11 07:10:00,
2013-08-11 00:20:00,60.8,36.7,30.12,WNW,286,0.0,0.0,40,0.00,,---,0.00,VWS V14.00,2013-08-11 07:20:00,
2013-08-11 00:30:00,60.9,36.8,30.12,WNW,286,0.0,0.0,40,0.00,,---,0.00,VWS V14.00,2013-08-11 07:30:00,
2013-08-11 00:35:00,61.0,36.8,30.12,WNW,286,0.0,0.0,40,0.00,,---,0.00,VWS V14.00,2013-08-11 07:35:00,
2013-08-11 00:45:00,61.7,36.8,30.12,WNW,286,0.0,0.0,40,0.00,,---,0.00,VWS V14.00,2013-08-11 07:45:00,
2013-08-11 01:00:00,62.3,36.7,30.11,WNW,286,0.0,0.0,38,0.00,,---,0.00,VWS V14.00,2013-08-11 08:00:00,
2013-08-11 01:10:00,62.5,36.2,30.11,WNW,286,0.0,0.0,38,0.00,,---,0.00,VWS V14.00,2013-08-11 08:10:00,
2013-08-11 01:20:00,61.9,36.4,30.12,WNW,286,0.0,0.0,38,0.00,,---,0.00,VWS V14.00,2013-08-11 08:20:00,
2013-08-11 01:25:00,61.6,36.1,30.12,WNW,286,0.0,0.0,38,0.00,,---,0.00,VWS V14.00,2013-08-11 08:25:00,
2013-08-11 01:40:00,60.3,36.2,30.11,WNW,286,0.0,0.0,40,0.00,,---,0.00,VWS V14.00,2013-08-11 08:40:00,
2013-08-11 01:50:00,60.7,35.9,30.12,WNW,286,0.0,0.0,40,0.00,,---,0.00,VWS V14.00,2013-08-11 08:50:00,
2013-08-11 01:55:00,60.6,35.8,30.12,WNW,286,0.0,0.0,40,0.00,,---,0.00,VWS V14.00,2013-08-11 08:55:00,
2013-08-11 02:05:00,60.4,36.3,30.12,WNW,286,0.0,0.0,40,0.00,,---,0.00,VWS V14.00,2013-08-11 09:05:00,
2013-08-11 02:15:00,60.3,36.2,30.12,WNW,286,0.0,0.0,40,0.00,,---,0.00,VWS V14.00,2013-08-11 09:15:00,
2013-08-11 02:20:00,60.6,36.5,30.12,WNW,286,0.0,0.0,40,0.00,,---,0.00,VWS V14.00,2013-08-11 09:20:00,
2013-08-11 02:25:00,60.5,35.8,30.11,WNW,286,0.0,0.0,40,0.00,,---,0.00,VWS V14.00,2013-08-11 09:25:00,
2013-08-11 02:35:00,59.0,35.0,30.12,WNW,286,0.0,0.0,40,0.00,,---,0.00,VWS V14.00,2013-08-11 09:35:00,
2013-08-11 02:40:00,58.5,35.2,30.12,WNW,286,0.0,0.0,42,0.00,,---,0.00,VWS V14.00,2013-08-11 09:40:00,
2013-08-11 02:45:00,58.4,35.7,30.12,WNW,286,0.0,0.0,42,0.00,,---,0.00,VWS V14.00,2013-08-11 09:45:00,
2013-08-11 02:55:00,58.2,35.5,30.11,WNW,286,0.0,0.0,42,0.00,,---,0.00,VWS V14.00,2013-08-11 09:55:00,
2013-08-11 03:05:00,58.0,35.4,30.12,WNW,286,0.0,0.0,42,0.00,,---,0.00,VWS V14.00,2013-08-11 10:05:00,
2013-08-11 03:15:00,57.3,34.7,30.12,WNW,286,0.0,0.0,42,0.00,,---,0.00,VWS V14.00,2013-08-11 10:15:00,
2013-08-11 03:20:00,57.0,35.0,30.12,WNW,286,0.0,0.0,44,0.00,,---,0.00,VWS V14.00,2013-08-11 10:20:00,
2013-08-11 03:30:00,54.9,32.5,30.12,WNW,286,0.0,0.0,42,0.00,,---,0.00,VWS V14.00,2013-08-11 10:30:00,
2013-08-11 03:40:00,53.6,32.5,30.12,WNW,286,0.0,0.0,44,0.00,,---,0.00,VWS V14.00,2013-08-11 10:40:00,
2013-08-11 03:45:00,53.3,32.2,30.12,WNW,286,0.0,0.0,44,0.00,,---,0.00,VWS V14.00,2013-08-11 10:45:00,
2013-08-11 03:55:00,53.6,33.6,30.12,WNW,286,0.0,0.0,46,0.00,,---,0.00,VWS V14.00,2013-08-11 10:55:00,
2013-08-11 04:00:00,54.0,32.9,30.12,WNW,286,0.0,0.0,44,0.00,,---,0.00,VWS V14.00,2013-08-11 11:00:00,
2013-08-11 04:10:00,54.2,33.1,30.12,WNW,286,0.0,0.0,44,0.00,,---,0.00,VWS V14.00,2013-08-11 11:10:00,
2013-08-11 04:20:00,56.3,35.5,30.12,WNW,286,0.0,0.0,46,0.00,,---,0.00,VWS V14.00,2013-08-11 11:20:00,
2013-08-11 04:25:00,56.0,33.5,30.12,WNW,286,0.0,0.0,42,0.00,,---,0.00,VWS V14.00,2013-08-11 11:25:00,
2013-08-11 04:30:00,55.5,34.2,30.12,WNW,286,0.0,0.0,44,0.00,,---,0.00,VWS V14.00,2013-08-11 11:30:00,
2013-08-11 04:35:00,56.2,34.9,30.12,WNW,286,0.0,0.0,44,0.00,,---,0.00,VWS V14.00,2013-08-11 11:35:00,
2013-08-11 04:40:00,55.4,32.4,30.12,WNW,286,0.0,0.0,42,0.00,,---,0.00,VWS V14.00,2013-08-11 11:40:00,
2013-08-11 04:50:00,54.2,33.6,30.12,WNW,286,0.0,0.0,46,0.00,,---,0.00,VWS V14.00,2013-08-11 11:50:00,
2013-08-11 04:55:00,54.6,34.0,30.12,WNW,286,0.0,0.0,46,0.00,,---,0.00,VWS V14.00,2013-08-11 11:55:00,
2013-08-11 05:00:00,55.0,33.8,30.12,WNW,286,0.0,0.0,44,0.00,,---,0.00,VWS V14.00,2013-08-11 12:00:00,
2013-08-11 05:05:00,54.9,33.7,30.12,WNW,286,0.0,0.0,44,0.00,,---,0.00,VWS V14.00,2013-08-11 12:05:00,
2013-08-11 05:10:00,54.7,33.5,30.12,WNW,286,0.0,0.0,44,0.00,,---,0.00,VWS V14.00,2013-08-11 12:10:00,
2013-08-11 05:15:00,54.9,33.7,30.12,WNW,286,0.0,0.0,44,0.00,,---,0.00,VWS V14.00,2013-08-11 12:15:00,
2013-08-11 05:20:00,55.3,34.1,30.12,WNW,286,0.0,0.0,44,0.00,,---,0.00,VWS V14.00,2013-08-11 12:20:00,
2013-08-11 05:25:00,55.3,34.1,30.13,WNW,286,0.0,0.0,44,0.00,,---,0.00,VWS V14.00,2013-08-11 12:25:00,
2013-08-11 05:30:00,55.2,34.0,30.13,WNW,286,0.0,0.0,44,0.00,,---,0.00,VWS V14.00,2013-08-11 12:30:00,
2013-08-11 05:35:00,55.2,34.0,30.13,WNW,286,0.0,0.0,44,0.00,,---,0.00,VWS V14.00,2013-08-11 12:35:00,
2013-08-11 05:40:00,55.1,33.9,30.13,WNW,286,0.0,0.0,44,0.00,,---,0.00,VWS V14.00,2013-08-11 12:40:00,
2013-08-11 05:45:00,54.9,33.7,30.13,WNW,286,0.0,0.0,44,0.00,,---,0.00,VWS V14.00,2013-08-11 12:45:00,
2013-08-11 05:50:00,54.8,33.6,30.13,WNW,286,0.0,0.0,44,0.00,,---,0.00,VWS V14.00,2013-08-11 12:50:00,
2013-08-11 05:55:00,54.5,33.3,30.13,WNW,286,0.0,0.0,44,0.00,,---,0.00,VWS V14.00,2013-08-11 12:55:00,
2013-08-11 06:00:00,53.7,32.6,30.13,WNW,286,0.0,0.0,44,0.00,,---,0.00,VWS V14.00,2013-08-11 13:00:00,
2013-08-11 06:05:00,52.8,31.8,30.13,WNW,286,0.0,0.0,44,0.00,,---,0.00,VWS V14.00,2013-08-11 13:05:00,
2013-08-11 06:15:00,52.8,32.3,30.13,WNW,286,0.0,0.0,46,0.00,,---,0.00,VWS V14.00,2013-08-11 13:15:00,
2013-08-11 06:20:00,52.9,32.4,30.14,WNW,286,0.0,0.0,46,0.00,,---,0.00,VWS V14.00,2013-08-11 13:20:00,
2013-08-11 06:25:00,52.7,32.2,30.14,WNW,286,0.0,0.0,46,0.00,,---,0.00,VWS V14.00,2013-08-11 13:25:00,
2013-08-11 06:30:00,52.6,32.7,30.14,WNW,286,0.0,0.0,46,0.00,,---,0.00,VWS V14.00,2013-08-11 13:30:00,
2013-08-11 06:40:00,52.3,30.8,30.14,WNW,286,0.0,0.0,44,0.00,,---,0.00,VWS V14.00,2013-08-11 13:40:00,
2013-08-11 06:45:00,52.2,31.2,30.14,WNW,286,0.0,0.0,44,0.00,,---,0.00,VWS V14.00,2013-08-11 13:45:00,
2013-08-11 06:50:00,52.7,31.7,30.14,WNW,286,0.0,0.0,44,0.00,,---,0.00,VWS V14.00,2013-08-11 13:50:00,
2013-08-11 06:55:00,53.1,31.5,30.14,WNW,286,0.0,0.0,44,0.00,,---,0.00,VWS V14.00,2013-08-11 13:55:00,
2013-08-11 07:00:00,53.6,32.0,30.14,WNW,286,0.0,0.0,44,0.00,,---,0.00,VWS V14.00,2013-08-11 14:00:00,
2013-08-11 07:05:00,54.4,32.1,30.14,WNW,286,0.0,0.0,42,0.00,,---,0.00,VWS V14.00,2013-08-11 14:05:00,
2013-08-11 07:10:00,55.1,32.7,30.14,WNW,286,0.0,0.0,42,0.00,,---,0.00,VWS V14.00,2013-08-11 14:10:00,
2013-08-11 07:15:00,55.8,32.8,30.14,WNW,286,0.0,0.0,42,0.00,,---,0.00,VWS V14.00,2013-08-11 14:15:00,
2013-08-11 07:20:00,56.3,32.6,30.14,WNW,286,0.0,0.0,40,0.00,,---,0.00,VWS V14.00,2013-08-11 14:20:00,
2013-08-11 07:25:00,57.0,32.6,30.14,WNW,286,0.0,0.0,40,0.00,,---,0.00,VWS V14.00,2013-08-11 14:25:00,
2013-08-11 07:35:00,58.4,33.2,30.14,WNW,286,0.0,0.0,38,0.00,,---,0.00,VWS V14.00,2013-08-11 14:35:00,
2013-08-11 07:40:00,59.0,33.1,30.14,WNW,286,0.0,0.0,38,0.00,,---,0.00,VWS V14.00,2013-08-11 14:40:00,
2013-08-11 07:45:00,59.2,33.3,30.14,WNW,286,0.0,0.0,38,0.00,,---,0.00,VWS V14.00,2013-08-11 14:45:00,
2013-08-11 07:55:00,59.3,33.4,30.14,WNW,286,0.0,0.0,38,0.00,,---,0.00,VWS V14.00,2013-08-11 14:55:00,
2013-08-11 08:05:00,59.8,33.8,30.14,WNW,286,0.0,0.0,38,0.00,,---,0.00,VWS V14.00,2013-08-11 15:05:00,
2013-08-11 08:20:00,60.5,33.8,30.14,WNW,286,0.0,0.0,36,0.00,,---,0.00,VWS V14.00,2013-08-11 15:20:00,
2013-08-11 08:25:00,60.7,33.3,30.14,WNW,286,0.0,0.0,36,0.00,,---,0.00,VWS V14.00,2013-08-11 15:25:00,
2013-08-11 08:30:00,60.9,33.4,30.14,WNW,286,0.0,0.0,36,0.00,,---,0.00,VWS V14.00,2013-08-11 15:30:00,
2013-08-11 08:35:00,61.1,33.6,30.14,WNW,286,0.0,0.0,36,0.00,,---,0.00,VWS V14.00,2013-08-11 15:35:00,
2013-08-11 08:40:00,61.4,33.9,30.14,WNW,286,0.0,0.0,36,0.00,,---,0.00,VWS V14.00,2013-08-11 15:40:00,
2013-08-11 08:45:00,61.5,34.0,30.14,WNW,286,0.0,0.0,36,0.00,,---,0.00,VWS V14.00,2013-08-11 15:45:00,
2013-08-11 08:50:00,61.8,33.5,30.14,WNW,286,0.0,0.0,34,0.00,,---,0.00,VWS V14.00,2013-08-11 15:50:00,
2013-08-11 08:55:00,62.3,34.0,30.14,WNW,286,0.0,0.0,34,0.00,,---,0.00,VWS V14.00,2013-08-11 15:55:00,
2013-08-11 09:00:00,62.5,34.1,30.14,WNW,286,0.0,0.0,34,0.00,,---,0.00,VWS V14.00,2013-08-11 16:00:00,
2013-08-11 09:05:00,62.8,34.4,30.14,WNW,286,0.0,0.0,34,0.00,,---,0.00,VWS V14.00,2013-08-11 16:05:00,
2013-08-11 09:10:00,63.2,34.0,30.13,WNW,286,0.0,0.0,34,0.00,,---,0.00,VWS V14.00,2013-08-11 16:10:00,
2013-08-11 09:20:00,63.8,33.0,30.13,WNW,286,0.0,0.0,32,0.00,,---,0.00,VWS V14.00,2013-08-11 16:20:00,
2013-08-11 09:25:00,64.1,33.3,30.13,WNW,286,0.0,0.0,32,0.00,,---,0.00,VWS V14.00,2013-08-11 16:25:00,
2013-08-11 09:30:00,64.4,33.5,30.13,WNW,286,0.0,0.0,32,0.00,,---,0.00,VWS V14.00,2013-08-11 16:30:00,
2013-08-11 09:35:00,64.8,33.1,30.13,WNW,286,0.0,0.0,30,0.00,,---,0.00,VWS V14.00,2013-08-11 16:35:00,
2013-08-11 09:45:00,65.2,33.4,30.13,WNW,286,0.0,8.0,30,0.00,,---,0.00,VWS V14.00,2013-08-11 16:45:00,
2013-08-11 09:55:00,66.1,32.5,30.12,WNW,286,6.0,7.0,28,0.00,,---,0.00,VWS V14.00,2013-08-11 16:55:00,
2013-08-11 10:05:00,66.9,33.2,30.12,WNW,286,5.0,10.0,28,0.00,,---,0.00,VWS V14.00,2013-08-11 17:05:00,
2013-08-11 10:15:00,67.5,31.0,30.12,WNW,286,0.0,0.0,26,0.00,,---,0.00,VWS V14.00,2013-08-11 17:15:00,
2013-08-11 10:20:00,68.3,30.6,30.12,WNW,286,0.0,0.0,24,0.00,,---,0.00,VWS V14.00,2013-08-11 17:20:00,
2013-08-11 10:35:00,69.0,31.2,30.12,WNW,286,0.0,5.0,24,0.00,,---,0.00,VWS V14.00,2013-08-11 17:35:00,
2013-08-11 10:45:00,69.8,30.9,30.12,WNW,286,0.0,0.0,24,0.00,,---,0.00,VWS V14.00,2013-08-11 17:45:00,
2013-08-11 10:50:00,70.1,32.2,30.11,WNW,286,0.0,0.0,24,0.00,,---,0.00,VWS V14.00,2013-08-11 17:50:00,
2013-08-11 10:55:00,70.9,32.8,30.11,WNW,286,0.0,0.0,24,0.00,,---,0.00,VWS V14.00,2013-08-11 17:55:00,
2013-08-11 11:00:00,71.0,32.9,30.11,WNW,286,0.0,0.0,24,0.00,,---,0.00,VWS V14.00,2013-08-11 18:00:00,
2013-08-11 11:10:00,72.3,34.0,30.11,WNW,288,0.0,5.0,24,0.00,,---,0.00,VWS V14.00,2013-08-11 18:10:00,
2013-08-11 11:15:00,72.8,34.5,30.10,WNW,288,0.0,0.0,24,0.00,,---,0.00,VWS V14.00,2013-08-11 18:15:00,
2013-08-11 11:20:00,72.9,33.5,30.10,WNW,289,0.0,9.0,24,0.00,,---,0.00,VWS V14.00,2013-08-11 18:20:00,
2013-08-11 11:25:00,73.3,33.8,30.10,WNW,292,0.0,7.0,24,0.00,,---,0.00,VWS V14.00,2013-08-11 18:25:00,
2013-08-11 11:30:00,73.3,33.8,30.10,WNW,291,0.0,0.0,24,0.00,,---,0.00,VWS V14.00,2013-08-11 18:30:00,
2013-08-11 11:40:00,74.0,33.3,30.09,WNW,292,0.0,7.0,22,0.00,,---,0.00,VWS V14.00,2013-08-11 18:40:00,
2013-08-11 11:45:00,74.4,33.7,30.09,WNW,292,0.0,6.0,22,0.00,,---,0.00,VWS V14.00,2013-08-11 18:45:00,
2013-08-11 11:50:00,75.1,34.3,30.09,NW,304,0.0,7.0,22,0.00,,---,0.00,VWS V14.00,2013-08-11 18:50:00,
2013-08-11 11:55:00,75.6,34.7,30.09,NW,304,0.0,7.0,22,0.00,,---,0.00,VWS V14.00,2013-08-11 18:55:00,
2013-08-11 12:00:00,74.9,35.2,30.08,WNW,300,5.0,11.0,24,0.00,,---,0.00,VWS V14.00,2013-08-11 19:00:00,
2013-08-11 12:10:00,75.5,35.7,30.08,WNW,286,3.0,11.0,24,0.00,,---,0.00,VWS V14.00,2013-08-11 19:10:00,
2013-08-11 12:15:00,75.8,35.9,30.08,WNW,284,8.0,11.0,24,0.00,,---,0.00,VWS V14.00,2013-08-11 19:15:00,
2013-08-11 12:25:00,76.6,36.6,30.08,West,276,10.0,10.0,24,0.00,,---,0.00,VWS V14.00,2013-08-11 19:25:00,
2013-08-11 12:35:00,77.2,36.0,30.08,West,278,0.0,5.0,22,0.00,,---,0.00,VWS V14.00,2013-08-11 19:35:00,
2013-08-11 12:45:00,77.8,36.5,30.07,West,279,10.0,10.0,22,0.00,,---,0.00,VWS V14.00,2013-08-11 19:45:00,
2013-08-11 12:50:00,77.5,35.1,30.07,WNW,291,0.0,12.0,22,0.00,,---,0.00,VWS V14.00,2013-08-11 19:50:00,
2013-08-11 12:55:00,77.9,35.5,30.07,West,271,0.0,13.0,22,0.00,,---,0.00,VWS V14.00,2013-08-11 19:55:00,
2013-08-11 13:00:00,77.7,35.3,30.07,West,271,4.0,10.0,22,0.00,,---,0.00,VWS V14.00,2013-08-11 20:00:00,
2013-08-11 13:15:00,78.7,34.9,30.07,West,276,0.0,12.0,20,0.00,,---,0.00,VWS V14.00,2013-08-11 20:15:00,
2013-08-11 13:20:00,78.7,34.9,30.06,WNW,287,7.0,10.0,20,0.00,,---,0.00,VWS V14.00,2013-08-11 20:20:00,
2013-08-11 13:25:00,79.6,34.4,30.07,WNW,288,6.0,9.0,20,0.00,,---,0.00,VWS V14.00,2013-08-11 20:25:00,
2013-08-11 13:30:00,79.0,33.9,30.07,WNW,286,0.0,11.0,20,0.00,,---,0.00,VWS V14.00,2013-08-11 20:30:00,
2013-08-11 13:35:00,79.4,34.2,30.06,WNW,286,1.0,7.0,20,0.00,,---,0.00,VWS V14.00,2013-08-11 20:35:00,
2013-08-11 13:45:00,80.4,33.7,30.06,WNW,295,0.0,12.0,18,0.00,,---,0.00,VWS V14.00,2013-08-11 20:45:00,
2013-08-11 14:00:00,80.9,32.8,30.06,WNW,294,9.0,12.0,18,0.00,,---,0.00,VWS V14.00,2013-08-11 21:00:00,
2013-08-11 14:10:00,80.5,31.0,30.06,WNW,294,1.0,11.0,16,0.00,,---,0.00,VWS V14.00,2013-08-11 21:10:00,
2013-08-11 14:20:00,81.3,31.6,30.06,West,280,8.0,15.0,16,0.00,,---,0.00,VWS V14.00,2013-08-11 21:20:00,
2013-08-11 14:25:00,81.5,33.2,30.05,WNW,288,11.0,14.0,18,0.00,,---,0.00,VWS V14.00,2013-08-11 21:25:00,
2013-08-11 14:35:00,81.1,34.3,30.05,NW,309,4.0,15.0,18,0.00,,---,0.00,VWS V14.00,2013-08-11 21:35:00,
2013-08-11 14:40:00,81.8,34.9,30.05,WNW,300,6.0,14.0,18,0.00,,---,0.00,VWS V14.00,2013-08-11 21:40:00,
2013-08-11 14:50:00,82.0,33.7,30.05,West,267,9.0,18.0,18,0.00,,---,0.00,VWS V14.00,2013-08-11 21:50:00,
2013-08-11 15:00:00,81.7,33.4,30.05,NW,309,9.0,20.0,18,0.00,,---,0.00,VWS V14.00,2013-08-11 22:00:00,
2013-08-11 15:10:00,82.0,33.7,30.05,WNW,289,13.0,15.0,18,0.00,,---,0.00,VWS V14.00,2013-08-11 22:10:00,
2013-08-11 15:20:00,81.6,34.7,30.05,NW,318,9.0,19.0,18,0.00,,---,0.00,VWS V14.00,2013-08-11 22:20:00,
2013-08-11 15:30:00,81.7,36.1,30.04,NNW,341,16.0,21.0,20,0.00,,---,0.00,VWS V14.00,2013-08-11 22:30:00,
2013-08-11 15:40:00,82.3,36.6,30.04,NW,310,15.0,19.0,20,0.00,,---,0.00,VWS V14.00,2013-08-11 22:40:00,
2013-08-11 15:50:00,81.4,35.9,30.04,NW,311,13.0,23.0,20,0.00,,---,0.00,VWS V14.00,2013-08-11 22:50:00,
2013-08-11 15:55:00,81.4,35.9,30.04,WNW,298,14.0,20.0,20,0.00,,---,0.00,VWS V14.00,2013-08-11 22:55:00,
2013-08-11 16:00:00,81.6,36.0,30.04,West,264,19.0,23.0,20,0.00,,---,0.00,VWS V14.00,2013-08-11 23:00:00,
2013-08-11 16:10:00,81.5,36.0,30.04,WNW,288,16.0,20.0,20,0.00,,---,0.00,VWS V14.00,2013-08-11 23:10:00,
2013-08-11 16:15:00,81.3,37.1,30.04,West,281,13.0,19.0,20,0.00,,---,0.00,VWS V14.00,2013-08-11 23:15:00,
2013-08-11 16:25:00,81.2,37.0,30.04,WNW,282,15.0,25.0,20,0.00,,---,0.00,VWS V14.00,2013-08-11 23:25:00,
2013-08-11 16:30:00,81.0,36.8,30.04,WNW,303,13.0,21.0,20,0.00,,---,0.00,VWS V14.00,2013-08-11 23:30:00,
2013-08-11 16:35:00,81.1,36.9,30.03,West,266,14.0,21.0,20,0.00,,---,0.00,VWS V14.00,2013-08-11 23:35:00,
2013-08-11 16:45:00,80.9,36.7,30.04,West,264,14.0,20.0,20,0.00,,---,0.00,VWS V14.00,2013-08-11 23:45:00,
2013-08-11 16:50:00,80.1,36.1,30.04,West,266,12.0,20.0,20,0.00,,---,0.00,VWS V14.00,2013-08-11 23:50:00,
2013-08-11 16:55:00,80.7,36.6,30.04,West,265,13.0,19.0,20,0.00,,---,0.00,VWS V14.00,2013-08-11 23:55:00,
2013-08-11 17:00:00,80.3,37.4,30.04,West,267,18.0,20.0,22,0.00,,---,0.00,VWS V14.00,2013-08-12 00:00:00,
2013-08-11 17:15:00,80.1,37.3,30.03,West,276,11.0,20.0,22,0.00,,---,0.00,VWS V14.00,2013-08-12 00:15:00,
2013-08-11 17:20:00,80.3,37.4,30.04,West,279,10.0,19.0,22,0.00,,---,0.00,VWS V14.00,2013-08-12 00:20:00,
2013-08-11 17:30:00,80.2,38.5,30.03,WNW,291,10.0,19.0,22,0.00,,---,0.00,VWS V14.00,2013-08-12 00:30:00,
2013-08-11 17:35:00,80.3,38.6,30.04,WNW,294,9.0,21.0,22,0.00,,---,0.00,VWS V14.00,2013-08-12 00:35:00,
2013-08-11 17:40:00,80.0,38.3,30.04,West,268,12.0,20.0,22,0.00,,---,0.00,VWS V14.00,2013-08-12 00:40:00,
2013-08-11 17:45:00,79.5,37.9,30.04,WNW,286,12.0,20.0,22,0.00,,---,0.00,VWS V14.00,2013-08-12 00:45:00,
2013-08-11 17:55:00,79.3,38.9,30.04,WNW,294,10.0,18.0,24,0.00,,---,0.00,VWS V14.00,2013-08-12 00:55:00,
2013-08-11 18:05:00,78.7,39.4,30.04,WNW,293,14.0,21.0,24,0.00,,---,0.00,VWS V14.00,2013-08-12 01:05:00,
2013-08-11 18:10:00,78.2,39.0,30.04,WNW,288,15.0,21.0,24,0.00,,---,0.00,VWS V14.00,2013-08-12 01:10:00,
2013-08-11 18:15:00,78.4,39.2,30.04,NW,308,16.0,18.0,24,0.00,,---,0.00,VWS V14.00,2013-08-12 01:15:00,
2013-08-11 18:20:00,78.2,39.0,30.04,West,279,14.0,18.0,24,0.00,,---,0.00,VWS V14.00,2013-08-12 01:20:00,
2013-08-11 18:25:00,78.2,40.0,30.04,NW,310,16.0,16.0,26,0.00,,---,0.00,VWS V14.00,2013-08-12 01:25:00,
2013-08-11 18:35:00,77.7,39.6,30.04,WNW,303,10.0,18.0,26,0.00,,---,0.00,VWS V14.00,2013-08-12 01:35:00,
2013-08-11 18:40:00,77.5,39.5,30.04,West,279,12.0,16.0,26,0.00,,---,0.00,VWS V14.00,2013-08-12 01:40:00,
2013-08-11 18:50:00,77.5,39.5,30.04,West,280,8.0,14.0,26,0.00,,---,0.00,VWS V14.00,2013-08-12 01:50:00,
2013-08-11 19:00:00,76.6,40.6,30.05,WNW,284,12.0,18.0,28,0.00,,---,0.00,VWS V14.00,2013-08-12 02:00:00,
2013-08-11 19:05:00,75.8,40.9,30.05,West,280,13.0,19.0,28,0.00,,---,0.00,VWS V14.00,2013-08-12 02:05:00,
2013-08-11 19:25:00,74.8,40.9,30.05,West,273,7.0,13.0,30,0.00,,---,0.00,VWS V14.00,2013-08-12 02:25:00,
2013-08-11 19:40:00,73.7,41.6,30.05,WNW,284,5.0,10.0,32,0.00,,---,0.00,VWS V14.00,2013-08-12 02:40:00,
2013-08-11 19:45:00,72.9,40.9,30.05,WNW,284,6.0,9.0,32,0.00,,---,0.00,VWS V14.00,2013-08-12 02:45:00,
2013-08-11 19:50:00,72.2,40.3,30.06,WNW,284,7.0,10.0,32,0.00,,---,0.00,VWS V14.00,2013-08-12 02:50:00,
2013-08-11 19:55:00,71.6,40.6,30.06,WNW,283,8.0,10.0,32,0.00,,---,0.00,VWS V14.00,2013-08-12 02:55:00,
2013-08-11 20:00:00,71.3,40.3,30.06,WNW,283,3.0,9.0,32,0.00,,---,0.00,VWS V14.00,2013-08-12 03:00:00,
2013-08-11 20:05:00,71.0,40.1,30.06,WNW,283,4.0,8.0,32,0.00,,---,0.00,VWS V14.00,2013-08-12 03:05:00,
2013-08-11 20:25:00,68.8,38.9,30.07,WNW,283,0.0,0.0,34,0.00,,---,0.00,VWS V14.00,2013-08-12 03:25:00,
2013-08-11 20:35:00,68.8,38.9,30.07,WNW,283,0.0,0.0,34,0.00,,---,0.00,VWS V14.00,2013-08-12 03:35:00,
2013-08-11 20:45:00,69.5,39.5,30.07,West,281,0.0,6.0,34,0.00,,---,0.00,VWS V14.00,2013-08-12 03:45:00,
2013-08-11 20:50:00,69.5,39.5,30.07,West,281,0.0,0.0,34,0.00,,---,0.00,VWS V14.00,2013-08-12 03:50:00,
2013-08-11 20:55:00,69.4,39.5,30.07,West,281,0.0,0.0,34,0.00,,---,0.00,VWS V14.00,2013-08-12 03:55:00,
2013-08-11 21:00:00,69.4,39.5,30.07,West,280,0.0,0.0,34,0.00,,---,0.00,VWS V14.00,2013-08-12 04:00:00,
2013-08-11 21:05:00,69.1,39.2,30.07,West,280,0.0,0.0,34,0.00,,---,0.00,VWS V14.00,2013-08-12 04:05:00,
2013-08-11 21:10:00,68.8,38.9,30.07,West,281,0.0,0.0,34,0.00,,---,0.00,VWS V14.00,2013-08-12 04:10:00,
2013-08-11 21:15:00,68.4,39.3,30.08,West,281,0.0,0.0,34,0.00,,---,0.00,VWS V14.00,2013-08-12 04:15:00,
2013-08-11 21:20:00,68.2,39.2,30.08,West,280,0.0,0.0,34,0.00,,---,0.00,VWS V14.00,2013-08-12 04:20:00,
2013-08-11 21:25:00,67.9,38.9,30.08,West,281,0.0,0.0,34,0.00,,---,0.00,VWS V14.00,2013-08-12 04:25:00,
2013-08-11 21:30:00,67.4,38.5,30.08,West,281,0.0,0.0,34,0.00,,---,0.00,VWS V14.00,2013-08-12 04:30:00,
2013-08-11 21:35:00,66.8,38.7,30.08,West,281,0.0,0.0,36,0.00,,---,0.00,VWS V14.00,2013-08-12 04:35:00,
2013-08-11 21:40:00,67.0,38.8,30.08,West,281,0.0,0.0,36,0.00,,---,0.00,VWS V14.00,2013-08-12 04:40:00,
2013-08-11 21:45:00,67.2,38.3,30.08,West,281,0.0,0.0,34,0.00,,---,0.00,VWS V14.00,2013-08-12 04:45:00,
2013-08-11 21:50:00,67.3,38.4,30.08,West,281,0.0,0.0,34,0.00,,---,0.00,VWS V14.00,2013-08-12 04:50:00,
2013-08-11 21:55:00,67.0,38.1,30.08,West,280,0.0,0.0,34,0.00,,---,0.00,VWS V14.00,2013-08-12 04:55:00,
2013-08-11 22:00:00,66.2,37.4,30.08,West,281,0.0,0.0,34,0.00,,---,0.00,VWS V14.00,2013-08-12 05:00:00,
2013-08-11 22:10:00,65.5,36.8,30.08,West,281,0.0,0.0,34,0.00,,---,0.00,VWS V14.00,2013-08-12 05:10:00,
2013-08-11 22:15:00,65.6,36.9,30.08,West,280,0.0,0.0,34,0.00,,---,0.00,VWS V14.00,2013-08-12 05:15:00,
2013-08-11 22:20:00,64.5,35.9,30.08,West,281,0.0,0.0,34,0.00,,---,0.00,VWS V14.00,2013-08-12 05:20:00,
2013-08-11 22:30:00,64.0,36.9,30.08,West,281,0.0,0.0,36,0.00,,---,0.00,VWS V14.00,2013-08-12 05:30:00,
2013-08-11 22:35:00,64.5,37.3,30.08,West,281,0.0,0.0,36,0.00,,---,0.00,VWS V14.00,2013-08-12 05:35:00,
2013-08-11 22:40:00,64.6,36.7,30.08,West,281,0.0,0.0,36,0.00,,---,0.00,VWS V14.00,2013-08-12 05:40:00,
2013-08-11 22:45:00,64.1,37.0,30.08,West,281,0.0,0.0,36,0.00,,---,0.00,VWS V14.00,2013-08-12 05:45:00,
2013-08-11 22:50:00,64.2,37.1,30.08,West,281,0.0,0.0,36,0.00,,---,0.00,VWS V14.00,2013-08-12 05:50:00,
2013-08-11 22:55:00,64.4,37.2,30.08,West,281,0.0,0.0,36,0.00,,---,0.00,VWS V14.00,2013-08-12 05:55:00,
2013-08-11 23:00:00,64.4,37.9,30.08,West,281,0.0,0.0,38,0.00,,---,0.00,VWS V14.00,2013-08-12 06:00:00,
2013-08-11 23:05:00,64.3,37.8,30.08,West,281,0.0,0.0,38,0.00,,---,0.00,VWS V14.00,2013-08-12 06:05:00,
2013-08-11 23:10:00,64.2,37.8,30.09,West,281,0.0,0.0,38,0.00,,---,0.00,VWS V14.00,2013-08-12 06:10:00,
2013-08-11 23:15:00,63.9,36.8,30.09,West,281,0.0,0.0,36,0.00,,---,0.00,VWS V14.00,2013-08-12 06:15:00,
2013-08-11 23:25:00,62.1,36.5,30.09,WNW,282,0.0,0.0,38,0.00,,---,0.00,VWS V14.00,2013-08-12 06:25:00,
2013-08-11 23:30:00,61.8,36.9,30.09,West,281,0.0,0.0,40,0.00,,---,0.00,VWS V14.00,2013-08-12 06:30:00,
2013-08-11 23:35:00,62.5,37.5,30.09,WNW,282,0.0,0.0,40,0.00,,---,0.00,VWS V14.00,2013-08-12 06:35:00,
2013-08-11 23:40:00,63.4,38.4,30.09,WNW,282,0.0,0.0,40,0.00,,---,0.00,VWS V14.00,2013-08-12 06:40:00,
2013-08-11 23:45:00,63.8,38.1,30.09,West,281,0.0,0.0,38,0.00,,---,0.00,VWS V14.00,2013-08-12 06:45:00,
2013-08-11 23:50:00,63.9,38.2,30.09,West,281,0.0,0.0,38,0.00,,---,0.00,VWS V14.00,2013-08-12 06:50:00,
2013-08-11 23:55:00,63.8,38.1,30.09,West,281,0.0,0.0,38,0.00,,---,0.00,VWS V14.00,2013-08-12 06:55:00,